createdAt,value
2019-04-05T00:00:00.055Z,97727.50
2019-04-05T00:03:13.644Z,97730.69
2019-04-05T00:06:27.152Z,97713.81
2019-04-05T00:09:41.179Z,97714.06
2019-04-05T00:12:55.244Z,97705.80
2019-04-05T00:16:08.824Z,97713.52
2019-04-05T00:19:22.387Z,97717.47
2019-04-05T00:22:36.368Z,97720.02
2019-04-05T00:25:49.946Z,97715.19
2019-04-05T00:29:03.517Z,97711.50
2019-04-05T00:32:16.968Z,97710.62
2019-04-05T00:35:30.454Z,97712.17
2019-04-05T00:38:44.016Z,97723.61
2019-04-05T00:41:57.768Z,97723.48
2019-04-05T00:45:11.827Z,97728.45
2019-04-05T00:48:25.271Z,97723.74
2019-04-05T00:51:38.740Z,97730.36
2019-04-05T00:54:52.496Z,97731.75
2019-04-05T00:58:06.403Z,97734.92
2019-04-05T01:01:20.078Z,97733.52
2019-04-05T01:04:33.551Z,97735.55
2019-04-05T01:07:47.531Z,97734.27
2019-04-05T01:11:01.444Z,97734.02
2019-04-05T01:14:15.659Z,97733.27
2019-04-05T01:17:29.335Z,97733.50
2019-04-05T01:20:47.176Z,97731.34
2019-04-05T01:24:01.250Z,97723.59
2019-04-05T01:27:14.925Z,97720.81
2019-04-05T01:30:28.588Z,97724.61
2019-04-05T01:33:42.140Z,97728.95
2019-04-05T01:36:56.197Z,97734.03
2019-04-05T01:40:09.963Z,97731.98
2019-04-05T01:43:23.655Z,97733.12
2019-04-05T01:46:37.219Z,97715.69
2019-04-05T01:49:50.875Z,97705.28
2019-04-05T01:53:04.547Z,97709.57
2019-04-05T01:56:18.241Z,97701.92
2019-04-05T01:59:31.979Z,97688.69
2019-04-05T02:02:45.874Z,97685.41
2019-04-05T02:05:59.508Z,97685.02
2019-04-05T02:09:13.207Z,97683.87
2019-04-05T02:12:26.907Z,97689.08
2019-04-05T02:15:40.598Z,97691.50
2019-04-05T02:18:54.188Z,97685.92
2019-04-05T02:22:08.175Z,97686.15
2019-04-05T02:25:22.115Z,97700.16
2019-04-05T02:28:35.971Z,97711.34
2019-04-05T02:31:49.811Z,97711.97
2019-04-05T02:35:03.734Z,97709.81
2019-04-05T02:38:17.440Z,97714.17
2019-04-05T02:41:31.539Z,97704.78
2019-04-05T02:44:46.253Z,97720.03
2019-04-05T02:48:03.708Z,97722.06
2019-04-05T02:51:21.227Z,97722.06
2019-04-05T02:54:35.115Z,97725.86
2019-04-05T02:57:49.602Z,97738.69
2019-04-05T03:01:03.310Z,97740.61
2019-04-05T03:04:16.881Z,97739.44
2019-04-05T03:07:30.792Z,97752.16
2019-04-05T03:11:11.762Z,97742.07
2019-04-05T03:14:26.347Z,97741.80
2019-04-05T03:17:40.762Z,97751.20
2019-04-05T03:20:58.431Z,97752.45
2019-04-05T03:24:16.452Z,97751.93
2019-04-05T03:27:33.757Z,97752.95
2019-04-05T03:30:47.827Z,97750.14
2019-04-05T03:34:01.752Z,97741.08
2019-04-05T03:37:16.028Z,97739.68
2019-04-05T03:40:30.006Z,97744.90
2019-04-05T03:43:44.109Z,97737.27
2019-04-05T03:46:58.299Z,97734.11
2019-04-05T03:50:11.954Z,97727.45
2019-04-05T03:53:26.045Z,97726.70
2019-04-05T03:56:39.929Z,97728.46
2019-04-05T03:59:54.124Z,97729.99
2019-04-05T04:03:07.914Z,97731.79
2019-04-05T04:06:22.320Z,97744.77
2019-04-05T04:09:36.320Z,97758.14
2019-04-05T04:12:50.345Z,97760.16
2019-04-05T04:16:04.205Z,97757.17
2019-04-05T04:19:18.117Z,97759.08
2019-04-05T04:22:31.912Z,97755.53
2019-04-05T04:25:46.075Z,97759.11
2019-04-05T04:28:59.955Z,97753.23
2019-04-05T04:32:13.967Z,97755.23
2019-04-05T04:35:28.104Z,97751.52
2019-04-05T04:38:41.899Z,97747.29
2019-04-05T04:41:55.578Z,97749.80
2019-04-05T04:45:12.596Z,97755.52
2019-04-05T04:48:26.368Z,97753.63
2019-04-05T04:51:40.531Z,97743.67
2019-04-05T04:54:54.532Z,97752.81
2019-04-05T04:58:08.565Z,97755.88
2019-04-05T05:01:22.607Z,97746.05
2019-04-05T05:04:36.678Z,97744.91
2019-04-05T05:07:50.999Z,97748.24
2019-04-05T05:11:14.318Z,97752.94
2019-04-05T05:14:21.008Z,97751.80
2019-04-05T05:17:38.865Z,97752.81
2019-04-05T05:20:50.945Z,97761.23
2019-04-05T05:24:04.835Z,97761.23
2019-04-05T05:27:18.899Z,97760.45
2019-04-05T05:30:33.021Z,97764.30
2019-04-05T05:33:46.914Z,97770.92
2019-04-05T05:37:01.162Z,97769.16
2019-04-05T05:40:15.358Z,97767.98
2019-04-05T05:43:29.061Z,97760.22
2019-04-05T05:46:43.323Z,97764.53
2019-04-05T05:49:56.877Z,97769.63
2019-04-05T05:53:10.603Z,97774.45
2019-04-05T05:56:24.084Z,97766.55
2019-04-05T05:59:38.102Z,97770.98
2019-04-05T06:02:51.619Z,97779.51
2019-04-05T06:06:05.576Z,97777.33
2019-04-05T06:09:19.091Z,97783.36
2019-04-05T06:12:32.683Z,97784.45
2019-04-05T06:15:46.312Z,97779.85
2019-04-05T06:19:01.198Z,97788.97
2019-04-05T06:22:17.544Z,97792.59
2019-04-05T06:25:32.800Z,97785.32
2019-04-05T06:28:48.002Z,97787.84
2019-04-05T06:32:03.246Z,97784.25
2019-04-05T06:35:18.251Z,97777.84
2019-04-05T06:38:31.832Z,97764.06
2019-04-05T06:41:45.437Z,97768.89
2019-04-05T06:44:58.922Z,97770.56
2019-04-05T06:48:19.071Z,97766.08
2019-04-05T06:51:28.551Z,97761.81
2019-04-05T06:54:42.487Z,97761.85
2019-04-05T06:57:56.463Z,97757.67
2019-04-05T07:01:09.949Z,97757.70
2019-04-05T07:04:23.892Z,97749.33
2019-04-05T07:07:37.617Z,97758.45
2019-04-05T07:10:51.358Z,97756.86
2019-04-05T07:14:05.304Z,97755.52
2019-04-05T07:17:18.888Z,97754.77
2019-04-05T07:20:32.501Z,97747.82
2019-04-05T07:23:46.237Z,97747.82
2019-04-05T07:26:59.837Z,97751.22
2019-04-05T07:30:13.942Z,97757.10
2019-04-05T07:33:27.779Z,97754.43
2019-04-05T07:36:41.277Z,97755.48
2019-04-05T07:39:55.034Z,97750.75
2019-04-05T07:43:08.761Z,97754.13
2019-04-05T07:46:22.279Z,97754.21
2019-04-05T07:49:35.782Z,97751.09
2019-04-05T07:52:49.376Z,97753.09
2019-04-05T07:56:03.105Z,97750.08
2019-04-05T07:59:16.712Z,97753.37
2019-04-05T08:02:30.646Z,97755.56
2019-04-05T08:05:44.712Z,97749.02
2019-04-05T08:09:06.661Z,97749.59
2019-04-05T08:12:20.603Z,97743.89
2019-04-05T08:15:34.630Z,97750.26
2019-04-05T08:18:57.648Z,97755.20
2019-04-05T08:22:04.080Z,97758.63
2019-04-05T08:25:17.616Z,97758.66
2019-04-05T08:28:31.671Z,97761.61
2019-04-05T08:31:45.294Z,97752.01
2019-04-05T08:34:59.063Z,97749.26
2019-04-05T08:38:12.897Z,97750.62
2019-04-05T08:41:26.414Z,97742.53
2019-04-05T08:44:40.023Z,97742.92
2019-04-05T08:47:53.738Z,97748.98
2019-04-05T08:51:07.497Z,97742.14
2019-04-05T08:54:32.005Z,97745.78
2019-04-05T08:57:36.516Z,97745.35
2019-04-05T09:00:50.123Z,97739.92
2019-04-05T09:04:03.883Z,97733.84
2019-04-05T09:07:17.723Z,97736.86
2019-04-05T09:10:31.217Z,97732.86
2019-04-05T09:13:44.807Z,97737.48
2019-04-05T09:16:58.304Z,97739.64
2019-04-05T09:20:11.913Z,97740.14
2019-04-05T09:23:25.921Z,97736.86
2019-04-05T09:26:39.664Z,97734.60
2019-04-05T09:29:53.269Z,97736.77
2019-04-05T09:33:07.011Z,97732.84
2019-04-05T09:36:20.500Z,97740.44
2019-04-05T09:39:34.005Z,97745.94
2019-04-05T09:42:47.504Z,97731.34
2019-04-05T09:46:01.188Z,97738.23
2019-04-05T09:49:14.769Z,97732.61
2019-04-05T09:52:28.537Z,97741.15
2019-04-05T09:55:42.175Z,97734.60
2019-04-05T09:58:55.919Z,97736.63
2019-04-05T10:02:09.652Z,97735.09
2019-04-05T10:05:23.241Z,97733.59
2019-04-05T10:08:37.206Z,97735.14
2019-04-05T10:11:50.817Z,97731.42
2019-04-05T10:15:04.660Z,97731.06
2019-04-05T10:18:18.264Z,97725.32
2019-04-05T10:21:31.770Z,97729.10
2019-04-05T10:24:45.519Z,97728.94
2019-04-05T10:27:59.008Z,97725.89
2019-04-05T10:31:12.521Z,97723.30
2019-04-05T10:34:25.994Z,97720.33
2019-04-05T10:37:39.610Z,97720.33
2019-04-05T10:40:53.299Z,97721.91
2019-04-05T10:44:09.518Z,97718.71
2019-04-05T10:47:23.430Z,97719.71
2019-04-05T10:50:37.482Z,97712.79
2019-04-05T10:53:50.960Z,97711.84
2019-04-05T10:57:04.689Z,97713.63
2019-04-05T11:00:19.316Z,97709.91
2019-04-05T11:03:33.331Z,97710.22
2019-04-05T11:06:47.117Z,97707.77
2019-04-05T11:10:01.070Z,97711.58
2019-04-05T11:13:14.590Z,97705.05
2019-04-05T11:16:28.198Z,97705.68
2019-04-05T11:19:41.712Z,97705.61
2019-04-05T11:22:55.566Z,97706.79
2019-04-05T11:26:09.485Z,97698.27
2019-04-05T11:29:23.062Z,97698.09
2019-04-05T11:32:37.072Z,97694.80
2019-04-05T11:35:50.808Z,97689.80
2019-04-05T11:39:06.030Z,97690.87
2019-04-05T11:42:21.698Z,97686.75
2019-04-05T11:45:35.737Z,97693.31
2019-04-05T11:48:49.986Z,97692.96
2019-04-05T11:52:03.978Z,97687.91
2019-04-05T11:55:18.521Z,97688.48
2019-04-05T11:58:32.480Z,97690.58
2019-04-05T12:01:55.592Z,97685.27
2019-04-05T12:05:10.432Z,97682.88
2019-04-05T12:08:24.057Z,97683.34
2019-04-05T12:11:37.805Z,97685.52
2019-04-05T12:14:51.547Z,97674.21
2019-04-05T12:18:05.379Z,97680.14
2019-04-05T12:21:20.866Z,97673.53
2019-04-05T12:24:34.372Z,97677.78
2019-04-05T12:27:48.492Z,97665.75
2019-04-05T12:31:02.509Z,97676.73
2019-04-05T12:34:16.135Z,97667.97
2019-04-05T12:37:29.772Z,97666.39
2019-04-05T12:40:44.227Z,97670.80
2019-04-05T12:43:57.915Z,97660.54
2019-04-05T12:47:13.941Z,97663.70
2019-04-05T12:50:27.088Z,97667.22
2019-04-05T12:53:40.603Z,97664.21
2019-04-05T12:56:57.657Z,97668.91
2019-04-05T13:00:13.329Z,97669.42
2019-04-05T13:03:27.118Z,97671.81
2019-04-05T13:06:42.270Z,97667.97
2019-04-05T13:09:56.058Z,97672.52
2019-04-05T13:13:09.868Z,97666.23
2019-04-05T13:16:23.392Z,97668.78
2019-04-05T13:19:37.116Z,97662.86
2019-04-05T13:22:51.443Z,97668.36
2019-04-05T13:26:05.211Z,97666.50
2019-04-05T13:29:19.764Z,97665.98
2019-04-05T13:32:33.926Z,97664.14
2019-04-05T13:35:47.383Z,97668.79
2019-04-05T13:39:00.903Z,97655.09
2019-04-05T13:42:14.881Z,97649.56
2019-04-05T13:45:28.823Z,97650.44
2019-04-05T13:48:42.660Z,97648.41
2019-04-05T13:51:56.240Z,97649.17
2019-04-05T13:55:11.338Z,97644.64
2019-04-05T13:58:25.234Z,97637.47
2019-04-05T14:01:38.750Z,97637.53
2019-04-05T14:04:53.954Z,97640.33
2019-04-05T14:08:11.138Z,97626.94
2019-04-05T14:11:25.924Z,97628.70
2019-04-05T14:14:39.445Z,97628.00
2019-04-05T14:17:54.548Z,97621.98
2019-04-05T14:21:08.264Z,97622.08
2019-04-05T14:24:23.439Z,97611.33
2019-04-05T14:27:38.026Z,97621.16
2019-04-05T14:30:51.855Z,97627.57
2019-04-05T14:34:05.590Z,97624.08
2019-04-05T14:37:22.147Z,97622.55
2019-04-05T14:40:34.956Z,97622.01
2019-04-05T14:43:48.452Z,97621.89
2019-04-05T14:47:02.142Z,97622.99
2019-04-05T14:50:16.287Z,97623.78
2019-04-05T14:53:32.318Z,97621.80
2019-04-05T14:56:45.197Z,97617.83
2019-04-05T14:59:58.808Z,97622.72
2019-04-05T15:03:12.383Z,97624.06
2019-04-05T15:06:26.805Z,97625.78
2019-04-05T15:09:40.735Z,97628.13
2019-04-05T15:12:54.494Z,97625.50
2019-04-05T15:16:08.417Z,97615.91
2019-04-05T15:19:21.918Z,97615.91
2019-04-05T15:22:35.503Z,97615.48
2019-04-05T15:25:49.907Z,97614.70
2019-04-05T15:29:04.375Z,97616.29
2019-04-05T15:32:19.361Z,97615.99
2019-04-05T15:35:33.305Z,97611.77
2019-04-05T15:38:47.052Z,97612.99
2019-04-05T15:42:00.575Z,97611.22
2019-04-05T15:45:16.095Z,97617.67
2019-04-05T15:48:30.913Z,97611.05
2019-04-05T15:51:44.911Z,97616.47
2019-04-05T15:54:58.656Z,97617.67
2019-04-05T15:58:12.434Z,97611.05
2019-04-05T16:01:26.536Z,97614.90
2019-04-05T16:04:40.241Z,97614.84
2019-04-05T16:07:53.747Z,97616.12
2019-04-05T16:11:08.079Z,97621.61
2019-04-05T16:14:21.785Z,97619.45
2019-04-05T16:17:35.392Z,97617.11
2019-04-05T16:20:49.112Z,97621.23
2019-04-05T16:24:02.971Z,97619.45
2019-04-05T16:27:16.509Z,97619.45
2019-04-05T16:30:30.129Z,97623.59
2019-04-05T16:33:43.960Z,97631.37
2019-04-05T16:36:57.520Z,97630.79
2019-04-05T16:40:11.694Z,97636.39
2019-04-05T16:43:25.343Z,97638.47
2019-04-05T16:46:38.975Z,97630.32
2019-04-05T16:49:52.901Z,97637.09
2019-04-05T16:53:06.361Z,97642.53
2019-04-05T16:56:20.320Z,97642.14
2019-04-05T16:59:33.938Z,97642.43
2019-04-05T17:02:47.446Z,97641.16
2019-04-05T17:06:00.972Z,97640.86
2019-04-05T17:09:14.725Z,97650.00
2019-04-05T17:12:28.340Z,97654.64
2019-04-05T17:15:41.848Z,97652.08
2019-04-05T17:18:55.478Z,97657.89
2019-04-05T17:22:09.197Z,97652.38
2019-04-05T17:25:22.925Z,97649.92
2019-04-05T17:28:36.533Z,97658.96
2019-04-05T17:31:50.423Z,97662.11
2019-04-05T17:35:07.288Z,97655.92
2019-04-05T17:38:21.222Z,97657.49
2019-04-05T17:41:34.999Z,97661.14
2019-04-05T17:44:48.616Z,97660.16
2019-04-05T17:48:02.232Z,97662.53
2019-04-05T17:51:15.870Z,97659.09
2019-04-05T17:54:29.683Z,97654.83
2019-04-05T17:57:43.304Z,97652.16
2019-04-05T18:00:56.914Z,97652.09
2019-04-05T18:04:12.327Z,97652.17
2019-04-05T18:07:26.085Z,97660.59
2019-04-05T18:10:39.811Z,97653.20
2019-04-05T18:13:53.595Z,97659.02
2019-04-05T18:17:07.105Z,97660.99
2019-04-05T18:20:20.612Z,97667.58
2019-04-05T18:23:34.376Z,97667.80
2019-04-05T18:26:48.369Z,97668.09
2019-04-05T18:30:02.223Z,97670.64
2019-04-05T18:33:16.155Z,97670.87
2019-04-05T18:36:30.368Z,97678.31
2019-04-05T18:39:44.012Z,97678.03
2019-04-05T18:42:57.761Z,97677.80
2019-04-05T18:46:11.851Z,97683.20
2019-04-05T18:49:25.789Z,97684.77
2019-04-05T18:52:39.679Z,97684.20
2019-04-05T18:55:53.232Z,97684.79
2019-04-05T18:59:06.972Z,97684.05
2019-04-05T19:02:20.701Z,97691.17
2019-04-05T19:05:34.676Z,97694.31
2019-04-05T19:08:48.275Z,97695.23
2019-04-05T19:12:01.910Z,97698.55
2019-04-05T19:15:15.856Z,97702.48
2019-04-05T19:18:30.194Z,97700.50
2019-04-05T19:21:43.884Z,97699.81
2019-04-05T19:24:57.380Z,97696.89
2019-04-05T19:28:11.279Z,97704.24
2019-04-05T19:50:58.234Z,97695.08
2019-04-05T19:54:11.866Z,97690.38
2019-04-05T19:57:26.267Z,97687.94
2019-04-05T20:00:40.202Z,97692.55
2019-04-05T20:03:54.038Z,97692.45
2019-04-05T20:07:07.983Z,97691.87
2019-04-05T20:10:21.681Z,97688.77
2019-04-05T20:13:35.229Z,97683.66
2019-04-05T20:20:19.432Z,97687.51
2019-04-05T20:23:32.965Z,97684.71
2019-04-05T20:26:46.579Z,97689.71
2019-04-05T20:30:00.615Z,97690.88
2019-04-05T20:33:14.299Z,97690.88
2019-04-05T20:36:28.103Z,97691.45
2019-04-05T20:39:41.809Z,97695.80
2019-04-05T20:42:55.686Z,97697.25
2019-04-05T20:46:11.656Z,97696.89
2019-04-05T20:49:25.233Z,97696.57
2019-04-05T20:52:39.087Z,97690.97
2019-04-05T20:55:52.986Z,97695.21
2019-04-05T20:59:07.159Z,97696.89
2019-04-05T21:02:20.762Z,97695.30
2019-04-05T21:05:34.444Z,97704.24
2019-04-05T21:08:48.257Z,97701.89
2019-04-05T21:12:01.922Z,97701.19
2019-04-05T21:15:15.497Z,97693.63
2019-04-05T21:18:30.313Z,97692.83
2019-04-05T21:21:43.982Z,97697.94
2019-04-05T21:24:57.595Z,97696.07
2019-04-05T21:28:11.213Z,97698.32
2019-04-05T21:31:25.668Z,97705.00
2019-04-05T21:34:39.583Z,97696.84
2019-04-05T21:37:53.228Z,97698.89
2019-04-05T21:41:06.852Z,97694.18
2019-04-05T21:44:20.379Z,97691.03
2019-04-05T21:47:34.491Z,97694.39
2019-04-05T21:50:48.398Z,97696.32
2019-04-05T21:54:02.058Z,97692.63
2019-04-05T21:57:15.830Z,97693.91
2019-04-05T22:00:40.000Z,97697.97
2019-04-05T22:03:54.205Z,97689.51
2019-04-05T22:07:07.924Z,97691.58
2019-04-05T22:10:21.465Z,97687.83
2019-04-05T22:13:35.230Z,97688.23
2019-04-05T22:16:48.894Z,97684.09
2019-04-05T22:20:03.494Z,97686.92
2019-04-05T22:23:16.982Z,97692.23
2019-04-05T22:26:30.484Z,97686.61
2019-04-05T22:29:44.249Z,97690.84
2019-04-05T22:32:58.082Z,97689.17
2019-04-05T22:36:12.024Z,97686.89
2019-04-05T22:39:25.631Z,97692.89
2019-04-05T22:42:39.125Z,97687.17
2019-04-05T22:45:52.926Z,97688.66
2019-04-05T22:49:06.736Z,97692.89
2019-04-05T22:52:20.408Z,97694.45
2019-04-05T22:55:34.274Z,97695.33
2019-04-05T22:58:47.879Z,97701.56
2019-04-05T23:02:02.960Z,97694.53
2019-04-05T23:05:16.778Z,97700.41
2019-04-05T23:08:30.287Z,97695.81
2019-04-05T23:11:43.790Z,97695.97
2019-04-05T23:14:57.296Z,97696.45
2019-04-05T23:18:11.216Z,97701.40
2019-04-05T23:21:24.785Z,97703.67
2019-04-05T23:24:38.460Z,97710.26
2019-04-05T23:27:52.035Z,97707.14
2019-04-05T23:31:05.988Z,97706.34
2019-04-05T23:34:19.469Z,97708.62
2019-04-05T23:37:33.395Z,97712.16
2019-04-05T23:40:47.326Z,97708.84
2019-04-05T23:44:01.156Z,97705.21
2019-04-05T23:47:14.855Z,97697.15
2019-04-05T23:50:28.472Z,97692.03
2019-04-05T23:53:42.113Z,97698.39
2019-04-05T23:56:55.788Z,97697.40
